Glover, North Dakota
Current Conditions -  °F | °C
As of 6:55 PM on Saturday 22 Nov 2014 (Local Time) from KGWR Reporting Station
Clear Clear  
Wind Chill: 26°   Ceiling: Unl
Heat Index: 34°   Visibility: 10mi
Dew Point: 32°   Wind: 10mph
Humidity: 93%   Direction: 130°SE
Pressure: 29.41"   Gusts: NA
Location:  46.1099°N, 98.1335°W
Report Text: KGWR 230055Z AUTO 13009KT 10SM CLR 01/00 A2941 RMK A01 P000
Loading
Personal Weather Stations






























Interactive Weather Map New forecast layout! Learn more

10-Day Weather Forecast

Advertisements
Track Severe Weather on mobile